Terminal Aerodrome Forecast
Issued by NWS Cleveland, OH

Home | Current Version | Previous Version | Graphics & Text | Print | Product List | Glossary On
Versions: 1 2 3 4 5 6 7 8 9 10 11 12 13 14 15 16 17 18 19 20
779
FTUS41 KCLE 221123
TAFYNG
TAF
KYNG 221123Z 2212/2312 21007KT P6SM SCT030 BKN080
      TEMPO 2212/2214 3SM -TSRA BKN030CB
     FM221600 25011KT 6SM HZ VCSH BKN040
     FM230200 23005KT 6SM HZ VCSH SCT045 BKN100
     FM230700 32002KT 4SM BR SCT010=

USA.gov is the U.S. government's official web portal to all federal, state and local government web resources and services.